KRIC/RIC METAR and TAF weather

Enter ICAO airport designator
Station Type Date Time Source
KRIC METAR 2020/10/20 17:54 UTC NOAA

KRIC 201754Z VRB03KT 10SM FEW035 FEW300 24/16 A3022 RMK AO2 SLP236 T02440156 10244 20161 58013


Station Type Date Time Source
KRIC Decoded METAR 2020/10/20 17:54 UTC NOAA

RICHMOND INTERNATIONAL AIRPORT, VA, United States (KRIC) 37-31N 077-19W 50M
Oct 20, 2020 - 01:54 PM EDT / 2020.10.20 1754 UTC
Wind: Variable at 3 MPH (3 KT):0
Visibility: 10 mile(s):0
Sky conditions: mostly clear
Temperature: 75.9 F (24.4 C)
Dew Point: 60.1 F (15.6 C)
Relative Humidity: 57%
Pressure (altimeter): 30.22 in. Hg (1023 hPa)
Pressure tendency: 0.04 inches (1.3 hPa) lower than three hours ago
ob: KRIC 201754Z VRB03KT 10SM FEW035 FEW300 24/16 A3022 RMK AO2 SLP236 T02440156 10244 20161 58013
cycle: 18

Station Type Date Time Source
KRIC TAF 2020/10/20 18:28 UTC NOAA

TAF KRIC 201726Z 2018/2118 21004KT P6SM FEW040
FM210300 00000KT P6SM BKN020
FM210600 00000KT 1SM BR OVC004
FM211500 VRB03KT P6SM BKN012
FM211700 18004KT P6SM BKN050

Example: see airport list